Time;durP1;ratioP1;P1;durP2;ratioP2;P2;SDS_P1;SDS_P2;PMS_P1;PMS_P2;Temp;Humidity;BMP_temperature;BMP_pressure;BME280_temperature;BME280_humidity;BME280_pressure;Samples;Min_cycle;Max_cycle;Signal;HPM_P1;HPM_P2
2023/03/02 00:00:33;;;;;;;34.17;17.80;;;;;;;-2.48;100.00;102707.63;5072202;28;20115;-76
2023/03/02 00:02:59;;;;;;;39.63;20.27;;;;;;;-2.45;100.00;102704.16;5071449;28;20029;-77
2023/03/02 00:05:26;;;;;;;38.97;19.52;;;;;;;-2.45;100.00;102707.63;5053770;28;20041;-77
2023/03/02 00:07:53;;;;;;;40.70;19.65;;;;;;;-2.46;100.00;102711.13;5072276;28;20377;-80
2023/03/02 00:10:19;;;;;;;45.10;20.25;;;;;;;-2.47;100.00;102706.78;5071601;28;20037;-77
2023/03/02 00:12:44;;;;;;;41.10;20.55;;;;;;;-2.49;100.00;102708.53;5071937;28;20033;-77
2023/03/02 00:15:10;;;;;;;40.97;19.77;;;;;;;-2.45;100.00;102709.38;5054198;28;20472;-77
2023/03/02 00:17:36;;;;;;;39.72;20.80;;;;;;;-2.47;100.00;102701.56;5053632;28;20039;-77
2023/03/02 00:20:10;;;;;;;47.53;22.45;;;;;;;-2.46;100.00;102702.41;5054162;28;20131;-77
2023/03/02 00:22:42;;;;;;;43.17;21.92;;;;;;;-2.44;100.00;102696.31;5072124;28;20033;-77
2023/03/02 00:25:09;;;;;;;56.13;23.98;;;;;;;-2.44;100.00;102705.91;5054237;28;20498;-77
2023/03/02 00:27:35;;;;;;;49.20;23.90;;;;;;;-2.45;100.00;102701.56;5071507;28;20051;-78
2023/03/02 00:30:00;;;;;;;58.45;25.10;;;;;;;-2.44;100.00;102691.13;5071869;28;20104;-77
2023/03/02 00:32:26;;;;;;;54.95;26.20;;;;;;;-2.44;100.00;102685.91;5071643;28;20457;-77
2023/03/02 00:34:51;;;;;;;54.42;25.48;;;;;;;-2.44;100.00;102693.72;5071882;28;20035;-77
2023/03/02 00:37:17;;;;;;;50.20;23.38;;;;;;;-2.46;100.00;102689.38;5054004;28;20059;-77
2023/03/02 00:39:43;;;;;;;54.35;26.15;;;;;;;-2.48;100.00;102689.41;5053972;28;20040;-77
2023/03/02 00:42:08;;;;;;;59.03;25.92;;;;;;;-2.48;100.00;102684.19;5072445;28;20028;-77
2023/03/02 00:44:33;;;;;;;58.08;26.90;;;;;;;-2.46;100.00;102677.25;5071611;28;20021;-77
2023/03/02 00:46:59;;;;;;;55.75;25.63;;;;;;;-2.49;100.00;102685.06;5053828;28;20025;-77
2023/03/02 00:49:25;;;;;;;57.92;27.45;;;;;;;-2.56;100.00;102679.03;5071447;28;20465;-77
2023/03/02 00:51:50;;;;;;;71.15;29.25;;;;;;;-2.54;100.00;102686.84;5073353;28;20489;-79
2023/03/02 00:54:15;;;;;;;68.70;28.38;;;;;;;-2.53;100.00;102683.34;5072812;28;20477;-76
2023/03/02 00:56:41;;;;;;;67.30;29.15;;;;;;;-2.54;100.00;102679.00;5072193;28;20060;-77
2023/03/02 00:59:25;;;;;;;68.20;27.52;;;;;;;-2.57;100.00;102679.88;5072755;28;20028;-77
2023/03/02 01:01:58;;;;;;;68.25;30.08;;;;;;;-2.52;100.00;102685.09;5073900;28;20064;-78
2023/03/02 01:04:28;;;;;;;86.68;32.30;;;;;;;-2.51;100.00;102677.28;5073491;28;20484;-79
2023/03/02 01:06:55;;;;;;;71.67;31.40;;;;;;;-2.50;100.00;102676.38;5073505;28;20040;-77
2023/03/02 01:09:21;;;;;;;78.22;31.52;;;;;;;-2.41;100.00;102677.19;5073251;28;20044;-78
2023/03/02 01:11:46;;;;;;;86.05;32.97;;;;;;;-2.29;100.00;102684.94;5053670;28;20112;-77
2023/03/02 01:14:12;;;;;;;84.47;31.38;;;;;;;-2.27;100.00;102687.53;5074122;28;20039;-77
2023/03/02 01:16:37;;;;;;;62.30;28.92;;;;;;;-2.34;100.00;102684.97;5074479;28;20043;-77
2023/03/02 01:19:02;;;;;;;84.40;32.25;;;;;;;-2.41;100.00;102685.03;5075086;28;20063;-77
2023/03/02 01:21:28;;;;;;;93.70;34.00;;;;;;;-2.34;100.00;102684.97;5075176;28;20029;-76
2023/03/02 01:23:53;;;;;;;76.50;30.55;;;;;;;-2.33;100.00;102683.22;5058187;28;20041;-75
2023/03/02 01:26:18;;;;;;;74.05;30.27;;;;;;;-2.32;100.00;102696.25;5041793;28;20060;-77
2023/03/02 01:28:44;;;;;;;86.57;32.47;;;;;;;-2.36;100.00;102689.34;5057438;28;20146;-75
2023/03/02 01:31:09;;;;;;;77.85;31.02;;;;;;;-2.43;100.00;102691.97;5075567;28;20029;-76
2023/03/02 01:33:34;;;;;;;79.53;31.30;;;;;;;-2.51;100.00;102687.69;5057460;28;20036;-76
2023/03/02 01:36:00;;;;;;;80.60;32.05;;;;;;;-2.56;100.00;102689.44;5058242;28;20131;-75
2023/03/02 01:38:26;;;;;;;83.40;30.98;;;;;;;-2.56;100.00;102685.97;5057735;28;20038;-76
2023/03/02 01:40:51;;;;;;;105.53;34.97;;;;;;;-2.45;100.00;102680.69;5057472;28;20044;-75
2023/03/02 01:43:17;;;;;;;99.15;32.63;;;;;;;-2.41;100.00;102687.63;5057488;28;20032;-76
2023/03/02 01:45:54;;;;;;;106.32;32.55;;;;;;;-2.22;100.00;102677.94;5075102;28;20029;-76
2023/03/02 01:48:37;;;;;;;94.97;32.72;;;;;;;-2.25;100.00;102680.56;5057692;28;20507;-76
2023/03/02 01:51:05;;;;;;;104.13;33.75;;;;;;;-2.26;100.00;102682.28;5075619;28;20052;-76
2023/03/02 01:53:34;;;;;;;102.50;33.53;;;;;;;-2.27;100.00;102677.94;5057508;28;20113;-76
2023/03/02 01:56:02;;;;;;;103.20;33.22;;;;;;;-2.30;100.00;102680.56;5075000;28;20044;-75
2023/03/02 01:58:30;;;;;;;108.05;33.28;;;;;;;-2.33;100.00;102675.38;5057210;28;20047;-75
2023/03/02 02:00:56;;;;;;;111.35;35.35;;;;;;;-2.34;100.00;102676.28;5075388;28;20040;-75
2023/03/02 02:03:27;;;;;;;102.82;32.03;;;;;;;-2.38;100.00;102674.56;5075133;28;20039;-76
2023/03/02 02:06:28;;;;;;;102.63;32.35;;;;;;;-2.40;100.00;102679.78;5057868;28;20437;-76
2023/03/02 02:08:57;;;;;;;103.25;32.22;;;;;;;-2.46;100.00;102677.25;5053761;28;20123;-75
2023/03/02 02:11:23;;;;;;;92.13;31.08;;;;;;;-2.46;100.00;102677.25;5074954;28;20115;-76
2023/03/02 02:13:54;;;;;;;114.78;34.05;;;;;;;-2.47;100.00;102672.03;5056927;28;20111;-76
2023/03/02 02:16:20;;;;;;;115.72;32.03;;;;;;;-2.51;100.00;102677.28;5052346;28;20032;-75
2023/03/02 02:18:45;;;;;;;107.95;31.48;;;;;;;-2.47;100.00;102666.81;5074530;28;20030;-76
2023/03/02 02:21:10;;;;;;;104.07;30.90;;;;;;;-2.49;100.00;102662.47;5040306;28;20040;-75
2023/03/02 02:23:44;;;;;;;117.15;33.38;;;;;;;-2.53;100.00;102662.50;5056906;28;20439;-76
2023/03/02 02:26:17;;;;;;;117.50;34.10;;;;;;;-2.56;100.00;102663.38;5056327;28;20119;-76
2023/03/02 02:28:59;;;;;;;98.93;31.75;;;;;;;-2.63;100.00;102647.78;5074581;28;20111;-75
2023/03/02 02:31:36;;;;;;;108.18;32.10;;;;;;;-2.68;100.00;102648.69;5057011;28;20369;-75
2023/03/02 02:34:16;;;;;;;98.10;31.73;;;;;;;-2.71;100.00;102642.63;5056615;28;20040;-75
2023/03/02 02:36:46;;;;;;;96.75;31.42;;;;;;;-2.77;100.00;102650.50;5074275;28;20462;-76
2023/03/02 02:39:20;;;;;;;127.53;33.40;;;;;;;-2.85;100.00;102640.97;5074927;28;20040;-77
2023/03/02 02:41:49;;;;;;;116.97;32.75;;;;;;;-2.90;100.00;102641.88;5074314;28;20462;-76
2023/03/02 02:44:17;;;;;;;112.10;31.70;;;;;;;-2.95;100.00;102641.03;5074186;28;20539;-76
2023/03/02 02:46:43;;;;;;;137.98;36.03;;;;;;;-2.96;100.00;102634.09;5056381;28;20033;-75
2023/03/02 02:49:33;;;;;;;128.77;34.55;;;;;;;-2.95;100.00;102641.91;5056453;28;20115;-76
2023/03/02 02:51:58;;;;;;;123.82;34.33;;;;;;;-2.99;100.00;102637.56;5073958;28;20028;-75
2023/03/02 02:54:26;;;;;;;158.90;37.53;;;;;;;-2.97;100.00;102643.66;5055809;28;20132;-75
2023/03/02 02:56:53;;;;;;;131.13;35.03;;;;;;;-2.84;100.00;102640.13;5056024;28;20106;-75
2023/03/02 02:59:23;;;;;;;153.57;37.47;;;;;;;-2.78;100.00;102636.59;5074346;28;20457;-75
2023/03/02 03:01:50;;;;;;;132.55;34.55;;;;;;;-2.77;100.00;102634.88;5056113;28;20030;-76
2023/03/02 03:04:25;;;;;;;144.43;34.85;;;;;;;-2.77;100.00;102637.47;5055293;28;20389;-76
2023/03/02 03:07:02;;;;;;;143.77;34.33;;;;;;;-2.75;100.00;102630.50;5055958;28;20082;-76
2023/03/02 03:09:28;;;;;;;140.05;33.40;;;;;;;-2.76;100.00;102637.47;5073835;28;20038;-76
2023/03/02 03:11:56;;;;;;;136.80;35.17;;;;;;;-2.84;100.00;102636.63;5073757;28;20029;-75
2023/03/02 03:14:38;;;;;;;123.28;33.08;;;;;;;-2.96;100.00;102642.75;5073931;28;20044;-75
2023/03/02 03:17:11;;;;;;;121.90;32.28;;;;;;;-3.10;100.00;102642.84;5055779;28;20024;-76
2023/03/02 03:19:38;;;;;;;110.60;30.83;;;;;;;-3.23;100.00;102635.94;5057272;28;20520;-75
2023/03/02 03:22:04;;;;;;;111.88;32.63;;;;;;;-3.36;100.00;102624.72;5056041;28;20043;-76
2023/03/02 03:24:31;;;;;;;106.68;30.83;;;;;;;-3.47;100.00;102626.50;5055526;28;20033;-75
2023/03/02 03:26:57;;;;;;;85.15;28.45;;;;;;;-3.59;100.00;102620.44;5056033;28;20062;-76
2023/03/02 03:29:24;;;;;;;112.00;31.55;;;;;;;-3.66;100.00;102628.28;5055504;28;20076;-76
2023/03/02 03:31:51;;;;;;;123.00;31.23;;;;;;;-3.72;100.00;102626.56;5054543;28;20523;-76
2023/03/02 03:34:16;;;;;;;101.22;29.55;;;;;;;-3.72;100.00;102631.75;5073192;28;20111;-76
2023/03/02 03:36:42;;;;;;;119.03;30.92;;;;;;;-3.74;100.00;102626.56;5073122;28;20034;-76
2023/03/02 03:39:09;;;;;;;118.38;31.50;;;;;;;-3.77;100.00;102623.97;5055404;28;20119;-76
2023/03/02 03:41:36;;;;;;;139.75;33.28;;;;;;;-3.79;100.00;102619.63;5055486;28;20048;-76
2023/03/02 03:44:03;;;;;;;120.60;33.42;;;;;;;-3.75;100.00;102621.34;5055181;28;20087;-76
2023/03/02 03:46:28;;;;;;;143.23;33.85;;;;;;;-3.65;100.00;102619.63;5073774;28;20073;-75
2023/03/02 03:48:54;;;;;;;126.85;32.05;;;;;;;-3.62;100.00;102609.19;5055553;28;20139;-76
2023/03/02 03:51:19;;;;;;;168.55;34.38;;;;;;;-3.50;100.00;102613.50;5038806;28;20109;-76
2023/03/02 03:53:45;;;;;;;163.30;35.88;;;;;;;-3.44;100.00;102622.13;5055625;28;20411;-76
2023/03/02 03:56:11;;;;;;;159.68;36.22;;;;;;;-3.38;100.00;102622.09;5051409;28;20540;-76
2023/03/02 03:58:37;;;;;;;166.00;36.13;;;;;;;-3.31;100.00;102625.56;5051252;28;20036;-75
2023/03/02 04:01:03;;;;;;;136.52;32.58;;;;;;;-3.27;100.00;102622.09;5051722;28;20481;-77
2023/03/02 04:03:28;;;;;;;159.68;34.95;;;;;;;-3.16;100.00;102626.34;5053034;28;20029;-75
2023/03/02 04:05:54;;;;;;;169.15;36.20;;;;;;;-3.16;100.00;102626.34;5034963;28;20033;-76
2023/03/02 04:08:19;;;;;;;179.57;36.85;;;;;;;-3.07;100.00;102624.59;5053234;28;20102;-75
2023/03/02 04:10:45;;;;;;;170.25;35.58;;;;;;;-3.03;100.00;102623.72;5052541;28;20036;-75
2023/03/02 04:13:11;;;;;;;164.23;35.78;;;;;;;-3.02;100.00;102630.63;5052578;28;20494;-75
2023/03/02 04:15:37;;;;;;;161.13;33.83;;;;;;;-2.99;100.00;102624.53;5052447;28;20382;-74
2023/03/02 04:18:03;;;;;;;141.98;32.83;;;;;;;-3.01;100.00;102623.69;5052690;28;20037;-74
2023/03/02 04:20:29;;;;;;;164.13;36.10;;;;;;;-3.05;100.00;102628.03;5035331;28;20029;-74
2023/03/02 04:22:55;;;;;;;137.88;34.15;;;;;;;-3.09;100.00;102625.47;5052951;28;20477;-76
2023/03/02 04:25:23;;;;;;;147.35;34.13;;;;;;;-3.10;100.00;102624.59;5053087;28;20029;-75
2023/03/02 04:27:50;;;;;;;162.70;34.65;;;;;;;-3.05;100.00;102640.22;5052593;28;20032;-76
2023/03/02 04:30:19;;;;;;;152.45;34.58;;;;;;;-3.02;100.00;102640.19;5052713;28;20434;-75
2023/03/02 04:32:45;;;;;;;135.90;32.40;;;;;;;-3.02;100.00;102630.63;5053632;28;20029;-76
2023/03/02 04:35:12;;;;;;;127.00;32.28;;;;;;;-3.08;100.00;102632.41;5052978;28;20041;-74
2023/03/02 04:37:38;;;;;;;136.98;32.58;;;;;;;-3.14;100.00;102633.31;5052593;28;20029;-74
2023/03/02 04:40:04;;;;;;;133.45;30.98;;;;;;;-3.17;100.00;102632.47;5051769;28;20118;-74
2023/03/02 04:42:30;;;;;;;114.13;29.88;;;;;;;-3.22;100.00;102628.13;5051358;28;20122;-74
2023/03/02 04:44:55;;;;;;;169.68;34.40;;;;;;;-3.16;100.00;102632.47;5052331;28;20123;-76
2023/03/02 04:47:21;;;;;;;147.10;31.23;;;;;;;-3.17;100.00;102627.25;5052267;28;20044;-76
2023/03/02 04:49:49;;;;;;;134.68;32.20;;;;;;;-3.15;100.00;102623.78;5055618;28;20450;-76
2023/03/02 04:52:14;;;;;;;136.95;32.08;;;;;;;-3.15;100.00;102623.78;5056134;28;20481;-75
2023/03/02 04:54:40;;;;;;;129.10;32.17;;;;;;;-3.18;100.00;102618.56;5056149;28;20057;-74
2023/03/02 04:57:07;;;;;;;120.78;29.83;;;;;;;-3.23;100.00;102628.13;5070039;28;20053;-75
2023/03/02 04:59:33;;;;;;;123.78;29.88;;;;;;;-3.27;100.00;102623.81;5058320;28;20043;-74
2023/03/02 05:01:59;;;;;;;134.45;30.67;;;;;;;-3.33;100.00;102629.91;5041448;28;20489;-75
2023/03/02 05:04:26;;;;;;;121.40;30.58;;;;;;;-3.37;100.00;102626.47;5076319;28;20036;-74
2023/03/02 05:06:51;;;;;;;132.02;31.80;;;;;;;-3.40;100.00;102626.47;5076339;28;20029;-75
2023/03/02 05:09:17;;;;;;;151.30;32.03;;;;;;;-3.37;100.00;102630.81;5041436;28;20025;-74
2023/03/02 05:11:42;;;;;;;135.52;31.73;;;;;;;-3.33;100.00;102624.69;5075864;28;20040;-74
2023/03/02 05:14:10;;;;;;;134.73;30.50;;;;;;;-3.33;100.00;102629.91;5075791;28;20037;-75
2023/03/02 05:16:38;;;;;;;145.05;30.38;;;;;;;-3.37;100.00;102623.84;5075503;28;20055;-74
2023/03/02 05:19:05;;;;;;;143.68;31.75;;;;;;;-3.34;100.00;102619.50;5075825;28;20036;-74
2023/03/02 05:21:31;;;;;;;142.88;31.70;;;;;;;-3.35;100.00;102623.00;5075697;28;20449;-74
2023/03/02 05:23:56;;;;;;;145.25;31.30;;;;;;;-3.31;100.00;102624.69;5075628;28;20025;-75
2023/03/02 05:26:22;;;;;;;135.68;31.17;;;;;;;-3.29;100.00;102622.97;5075703;28;20032;-74
2023/03/02 05:28:48;;;;;;;138.75;31.83;;;;;;;-3.27;100.00;102619.50;5075640;28;20051;-74
2023/03/02 05:31:19;;;;;;;132.93;31.65;;;;;;;-3.27;100.00;102611.69;5058295;28;20393;-75
2023/03/02 05:33:45;;;;;;;151.02;30.90;;;;;;;-3.30;100.00;102616.91;5057914;28;20461;-74
2023/03/02 05:36:10;;;;;;;142.05;32.78;;;;;;;-3.32;100.00;102615.16;5057293;28;20029;-75
2023/03/02 05:38:35;;;;;;;131.57;30.02;;;;;;;-3.39;100.00;102616.91;5057325;28;20028;-74
2023/03/02 05:41:02;;;;;;;141.55;32.13;;;;;;;-3.47;100.00;102614.34;5075345;28;20060;-75
2023/03/02 05:43:27;;;;;;;129.15;31.77;;;;;;;-3.51;100.00;102619.56;5075137;28;20028;-74
2023/03/02 05:45:59;;;;;;;144.68;30.20;;;;;;;-3.56;100.00;102619.59;5075369;28;20107;-74
2023/03/02 05:48:25;;;;;;;135.75;31.23;;;;;;;-3.58;100.00;102619.59;5075396;28;20143;-75
2023/03/02 05:50:51;;;;;;;138.23;28.63;;;;;;;-3.59;100.00;102622.19;5075487;28;20024;-74
2023/03/02 05:53:16;;;;;;;142.25;31.95;;;;;;;-3.61;100.00;102617.00;5075087;28;20024;-74
2023/03/02 05:55:41;;;;;;;131.48;29.85;;;;;;;-3.62;100.00;102617.84;5056935;28;20063;-75
2023/03/02 05:58:16;;;;;;;141.32;30.58;;;;;;;-3.59;100.00;102624.81;5057681;28;20036;-74
2023/03/02 06:00:42;;;;;;;122.93;29.13;;;;;;;-3.61;100.00;102622.19;5074489;28;20040;-75
2023/03/02 06:03:07;;;;;;;137.38;29.73;;;;;;;-3.59;100.00;102630.00;5056693;28;20024;-75
2023/03/02 06:05:33;;;;;;;155.88;31.23;;;;;;;-3.60;100.00;102618.75;5074895;28;20029;-74
2023/03/02 06:07:58;;;;;;;154.27;31.83;;;;;;;-3.58;100.00;102627.41;5056814;28;20481;-74
2023/03/02 06:10:24;;;;;;;144.07;30.48;;;;;;;-3.59;100.00;102628.25;5075494;28;20155;-74
2023/03/02 06:12:50;;;;;;;131.63;29.75;;;;;;;-3.60;100.00;102630.88;5075280;28;20035;-74
2023/03/02 06:15:15;;;;;;;123.55;29.63;;;;;;;-3.63;100.00;102639.53;5074685;28;20120;-74
2023/03/02 06:17:40;;;;;;;140.48;31.35;;;;;;;-3.65;100.00;102635.22;5075328;28;20518;-74
2023/03/02 06:20:09;;;;;;;125.03;31.15;;;;;;;-3.63;100.00;102638.69;5074972;28;20581;-75
2023/03/02 06:22:37;;;;;;;128.75;29.80;;;;;;;-3.67;100.00;102643.03;5056897;28;20037;-74
2023/03/02 06:25:03;;;;;;;135.15;30.27;;;;;;;-3.72;100.00;102643.06;5056985;28;20389;-75
2023/03/02 06:27:29;;;;;;;144.57;32.03;;;;;;;-3.71;100.00;102643.91;5056726;28;20036;-75
2023/03/02 06:29:55;;;;;;;128.43;30.20;;;;;;;-3.70;100.00;102652.56;5056846;28;20444;-75
2023/03/02 06:32:23;;;;;;;134.15;29.20;;;;;;;-3.73;100.00;102643.06;5056192;28;20381;-76
2023/03/02 06:34:48;;;;;;;143.85;31.05;;;;;;;-3.71;100.00;102649.13;5023548;28;20045;-76
2023/03/02 06:37:14;;;;;;;147.45;30.15;;;;;;;-3.73;100.00;102645.66;5074231;28;20091;-74
2023/03/02 06:39:39;;;;;;;131.57;29.35;;;;;;;-3.69;100.00;102652.56;5056967;28;20060;-76
2023/03/02 06:42:04;;;;;;;134.80;30.90;;;;;;;-3.66;100.00;102647.34;5075196;28;20063;-75
2023/03/02 06:44:30;;;;;;;119.38;29.88;;;;;;;-3.63;100.00;102647.34;5074784;28;20029;-74
2023/03/02 06:46:55;;;;;;;138.23;32.33;;;;;;;-3.59;100.00;102650.81;5075149;28;20055;-75
2023/03/02 06:49:21;;;;;;;138.70;32.10;;;;;;;-3.56;100.00;102659.47;5073794;28;20389;-74
2023/03/02 06:51:46;;;;;;;136.95;30.33;;;;;;;-3.53;100.00;102649.94;5073922;28;20032;-74
2023/03/02 06:54:12;;;;;;;126.22;30.92;;;;;;;-3.48;100.00;102653.38;5073851;28;20115;-74
2023/03/02 06:56:37;;;;;;;132.13;30.55;;;;;;;-3.49;100.00;102646.44;5074146;28;20091;-73
2023/03/02 06:59:03;;;;;;;143.70;31.73;;;;;;;-3.42;100.00;102659.47;5073796;28;20028;-75
2023/03/02 07:01:34;;;;;;;151.45;31.80;;;;;;;-3.39;100.00;102658.56;5073115;28;20040;-74
2023/03/02 07:04:00;;;;;;;135.93;30.00;;;;;;;-3.31;100.00;102661.13;5056205;28;20043;-74
2023/03/02 07:06:25;;;;;;;130.05;30.00;;;;;;;-3.19;100.00;102667.19;5074204;28;20135;-75
2023/03/02 07:08:51;;;;;;;142.00;31.30;;;;;;;-3.12;100.00;102664.53;5073344;28;20087;-76
2023/03/02 07:11:16;;;;;;;172.02;32.50;;;;;;;-3.05;100.00;102661.91;5055457;28;20048;-76
2023/03/02 07:13:42;;;;;;;139.88;32.10;;;;;;;-3.01;100.00;102668.84;5073205;28;20051;-74
2023/03/02 07:16:09;;;;;;;138.18;31.80;;;;;;;-2.93;100.00;102670.53;5073217;28;20043;-74
2023/03/02 07:18:35;;;;;;;146.90;32.38;;;;;;;-2.86;100.00;102667.03;5073554;28;20028;-74
2023/03/02 07:21:00;;;;;;;139.13;32.15;;;;;;;-2.74;100.00;102666.13;5055081;28;20483;-74
2023/03/02 07:23:25;;;;;;;159.32;33.53;;;;;;;-2.66;100.00;102666.91;5072694;28;20440;-75
2023/03/02 07:25:51;;;;;;;175.65;35.70;;;;;;;-2.57;100.00;102666.84;5055547;28;20426;-74
2023/03/02 07:28:16;;;;;;;164.77;34.80;;;;;;;-2.53;100.00;102665.97;5073088;28;20032;-76
2023/03/02 07:30:41;;;;;;;162.57;32.60;;;;;;;-2.43;100.00;102682.44;5073072;28;20035;-75
2023/03/02 07:33:07;;;;;;;161.60;34.72;;;;;;;-2.34;100.00;102678.91;5054690;28;20466;-75
2023/03/02 07:35:32;;;;;;;165.68;35.60;;;;;;;-2.26;100.00;102674.47;5073060;28;20037;-75
2023/03/02 07:37:57;;;;;;;160.75;33.95;;;;;;;-2.16;100.00;102670.91;5054921;28;20476;-75
2023/03/02 07:40:23;;;;;;;164.75;34.67;;;;;;;-2.09;100.00;102665.66;5054614;28;20146;-75
2023/03/02 07:42:49;;;;;;;157.38;34.30;;;;;;;-1.98;100.00;102671.66;5072784;28;20430;-74
2023/03/02 07:45:15;;;;;;;159.68;33.78;;;;;;;-1.89;100.00;102674.16;5072276;28;20040;-75
2023/03/02 07:47:41;;;;;;;175.30;35.42;;;;;;;-1.76;100.00;102674.94;5072738;28;20029;-75
2023/03/02 07:50:07;;;;;;;175.15;35.15;;;;;;;-1.65;100.00;102667.84;5073098;28;20035;-75
2023/03/02 07:52:33;;;;;;;152.23;35.63;;;;;;;-1.49;100.00;102672.94;5054408;28;20028;-75
2023/03/02 07:54:58;;;;;;;155.75;36.25;;;;;;;-1.36;100.00;102678.88;5072871;28;20058;-74
2023/03/02 07:57:24;;;;;;;161.52;35.03;;;;;;;-1.23;100.00;102672.63;5050884;28;20156;-75
2023/03/02 07:59:49;;;;;;;172.32;36.72;;;;;;;-1.11;100.00;102669.84;5051174;28;20049;-75
2023/03/02 08:02:19;;;;;;;172.02;36.60;;;;;;;-0.96;100.00;102665.31;5052523;28;20029;-75
2023/03/02 08:04:44;;;;;;;155.52;35.60;;;;;;;-0.81;100.00;102667.72;5051378;28;20112;-75
2023/03/02 08:07:10;;;;;;;161.20;34.80;;;;;;;-0.68;100.00;102665.81;5052960;28;20072;-75
2023/03/02 08:09:37;;;;;;;154.82;35.70;;;;;;;-0.58;100.00;102667.41;5052631;28;20108;-75
2023/03/02 08:12:02;;;;;;;152.80;35.17;;;;;;;-0.45;100.00;102665.50;5052806;28;20045;-76
2023/03/02 08:14:28;;;;;;;140.52;35.00;;;;;;;-0.33;100.00;102666.19;5051312;28;20044;-75
2023/03/02 08:16:53;;;;;;;136.45;34.38;;;;;;;-0.22;100.00;102657.28;5052478;28;20037;-74
2023/03/02 08:19:19;;;;;;;128.88;33.83;;;;;;;-0.09;100.00;102659.69;5051333;28;20116;-74
2023/03/02 08:21:44;;;;;;;120.85;33.88;;;;;;;0.02;100.00;102662.13;5052343;28;20037;-73
2023/03/02 08:24:10;;;;;;;100.97;32.22;;;;;;;0.10;100.00;102668.09;5055179;28;20044;-75
2023/03/02 08:26:36;;;;;;;99.30;30.48;;;;;;;0.16;100.00;102663.63;5056605;28;20563;-74
2023/03/02 08:29:01;;;;;;;91.55;27.73;;;;;;;0.23;100.00;102661.75;5038754;28;20520;-75
2023/03/02 08:31:27;;;;;;;89.40;28.90;;;;;;;0.31;100.00;102656.38;5056844;28;20086;-74
2023/03/02 08:33:53;;;;;;;73.32;25.83;;;;;;;0.41;100.00;102655.31;5056237;28;20114;-75
2023/03/02 08:36:19;;;;;;;67.38;25.73;;;;;;;0.53;100.00;102662.91;5056593;28;20458;-75
2023/03/02 08:38:45;;;;;;;48.05;23.30;;;;;;;0.60;100.00;102660.19;5056596;28;20025;-75
2023/03/02 08:41:17;;;;;;;54.60;23.17;;;;;;;0.69;100.00;102657.41;5055336;28;20048;-75
2023/03/02 08:43:42;;;;;;;46.33;21.40;;;;;;;0.86;100.00;102664.91;5055748;28;20103;-76
2023/03/02 08:46:10;;;;;;;41.58;20.33;;;;;;;0.94;100.00;102664.75;5055133;28;20426;-75
2023/03/02 08:48:36;;;;;;;37.20;20.65;;;;;;;1.15;100.00;102666.94;5038333;28;20033;-77
2023/03/02 08:51:04;;;;;;;34.33;18.98;;;;;;;1.30;100.00;102665.72;5056244;28;20488;-75
2023/03/02 08:53:32;;;;;;;38.08;18.55;;;;;;;1.47;100.00;102664.47;5054874;28;20083;-75
2023/03/02 08:55:57;;;;;;;33.88;17.92;;;;;;;1.72;100.00;102668.25;5058789;28;20067;-75
2023/03/02 08:58:23;;;;;;;35.35;18.15;;;;;;;2.15;100.00;102662.81;5076612;28;20376;-75
2023/03/02 09:00:48;;;;;;;29.30;16.20;;;;;;;2.78;100.00;102664.59;5058101;28;20476;-76
2023/03/02 09:03:14;;;;;;;26.52;15.00;;;;;;;3.61;100.00;102655.09;5058222;28;20048;-74
2023/03/02 09:05:41;;;;;;;27.30;15.60;;;;;;;4.49;100.00;102642.41;5075881;28;20029;-76
2023/03/02 09:08:07;;;;;;;27.92;15.15;;;;;;;5.46;100.00;102641.38;5057331;28;20036;-77
2023/03/02 09:10:33;;;;;;;23.00;13.90;;;;;;;6.80;100.00;102636.59;5040913;28;20399;-76
2023/03/02 09:12:58;;;;;;;23.77;14.80;;;;;;;8.17;100.00;102631.72;5057784;28;20044;-77
2023/03/02 09:15:23;;;;;;;20.25;13.25;;;;;;;9.44;87.58;102633.72;5057708;28;20123;-75
2023/03/02 09:17:49;;;;;;;22.98;13.70;;;;;;;10.29;72.53;102626.91;5076100;28;20032;-75
2023/03/02 09:20:14;;;;;;;19.90;13.05;;;;;;;11.08;64.12;102620.22;5076149;28;20044;-75
2023/03/02 09:22:47;;;;;;;22.65;13.02;;;;;;;11.28;58.35;102626.06;5058449;28;20173;-75
2023/03/02 09:25:13;;;;;;;18.63;13.15;;;;;;;11.56;56.65;102630.44;5059014;28;20089;-75
2023/03/02 09:27:39;;;;;;;18.80;12.93;;;;;;;12.16;55.63;102633.59;5041286;28;20085;-75
2023/03/02 09:30:05;;;;;;;21.38;13.60;;;;;;;12.09;52.32;102627.84;5041283;28;20411;-75
2023/03/02 09:32:31;;;;;;;20.90;12.18;;;;;;;11.98;51.38;102633.03;5057592;28;20045;-75
2023/03/02 09:34:56;;;;;;;19.20;12.52;;;;;;;11.88;52.32;102635.41;5057469;28;20028;-76
2023/03/02 09:37:22;;;;;;;19.23;11.75;;;;;;;12.17;50.86;102633.47;5075768;28;20092;-76
2023/03/02 09:39:54;;;;;;;16.05;11.45;;;;;;;12.09;49.78;102626.94;5075125;28;20477;-75
2023/03/02 09:42:42;;;;;;;19.58;12.27;;;;;;;12.16;50.05;102630.91;5075635;28;20025;-78
2023/03/02 09:45:47;;;;;;;16.88;11.75;;;;;;;12.21;50.57;102628.81;5075447;28;20021;-77
2023/03/02 09:48:27;;;;;;;17.20;11.32;;;;;;;12.24;50.45;102628.59;5075300;28;20085;-76
2023/03/02 09:51:26;;;;;;;18.52;11.73;;;;;;;12.49;48.95;102629.53;5075450;28;20041;-77
2023/03/02 09:53:58;;;;;;;18.30;11.25;;;;;;;12.55;48.35;102626.41;5052521;28;20040;-75
2023/03/02 09:56:25;;;;;;;16.70;11.57;;;;;;;12.87;49.30;102626.81;5076208;28;20135;-81
2023/03/02 09:59:16;;;;;;;16.98;11.25;;;;;;;12.98;48.55;102634.03;5058146;28;20028;-80
2023/03/02 10:02:17;;;;;;;15.02;10.63;;;;;;;13.18;47.96;102624.56;5075376;28;20478;-76
2023/03/02 10:04:46;;;;;;;14.65;10.93;;;;;;;12.96;47.87;102627.97;5057320;28;20032;-76
2023/03/02 10:07:15;;;;;;;19.20;12.15;;;;;;;13.04;47.38;102620.22;5074800;28;20036;-80
2023/03/02 10:09:42;;;;;;;17.73;11.30;;;;;;;13.18;48.38;102627.25;5075181;28;20024;-79
2023/03/02 10:12:19;;;;;;;18.05;11.88;;;;;;;13.31;47.08;102627.19;5074823;28;20050;-78
2023/03/02 10:15:07;;;;;;;15.40;10.55;;;;;;;13.27;47.75;102623.06;5057357;28;20038;-77
2023/03/02 10:17:53;;;;;;;16.00;11.43;;;;;;;13.28;47.24;102626.56;5074757;28;20508;-77
2023/03/02 10:20:28;;;;;;;17.77;11.10;;;;;;;13.45;48.88;102619.97;5056991;28;20120;-77
2023/03/02 10:23:09;;;;;;;16.05;11.68;;;;;;;13.94;47.99;102621.63;5057737;28;20429;-76
2023/03/02 10:25:46;;;;;;;14.73;10.38;;;;;;;13.74;47.29;102620.47;5057010;28;20027;-76
2023/03/02 10:28:18;;;;;;;17.42;10.57;;;;;;;13.99;47.42;102623.94;5074918;28;20029;-78
2023/03/02 10:30:48;;;;;;;16.00;11.02;;;;;;;14.10;46.87;102614.09;5075034;28;20025;-78
2023/03/02 10:33:17;;;;;;;15.82;10.90;;;;;;;14.08;46.38;102615.22;5074399;28;20040;-78
2023/03/02 10:35:49;;;;;;;16.75;11.02;;;;;;;13.58;46.83;102620.78;5074093;28;20024;-78
2023/03/02 10:38:20;;;;;;;18.90;10.77;;;;;;;13.11;47.06;102615.28;5056599;28;20044;-78
2023/03/02 10:40:58;;;;;;;16.15;11.10;;;;;;;13.01;47.67;102609.75;5057000;28;20032;-76
2023/03/02 10:43:54;;;;;;;20.65;10.95;;;;;;;13.39;48.62;102611.47;5074422;28;20036;-76
2023/03/02 10:46:20;;;;;;;17.25;11.07;;;;;;;13.09;48.16;102609.19;5071876;28;20123;-76
2023/03/02 10:48:58;;;;;;;14.98;10.75;;;;;;;12.88;50.79;102607.13;5074564;28;20025;-75
2023/03/02 10:51:36;;;;;;;15.50;10.93;;;;;;;12.91;49.15;102606.03;5056599;28;20035;-76
2023/03/02 10:54:12;;;;;;;15.63;10.70;;;;;;;12.38;51.40;102595.59;5057076;28;20187;-76
2023/03/02 10:56:48;;;;;;;16.23;10.73;;;;;;;12.44;50.41;102602.31;5055610;28;20045;-75
2023/03/02 10:59:25;;;;;;;18.15;11.15;;;;;;;12.76;52.21;102604.50;5074327;28;20498;-75
2023/03/02 11:02:02;;;;;;;16.20;11.18;;;;;;;12.66;50.85;102604.31;5074155;28;20076;-75
2023/03/02 11:04:29;;;;;;;21.02;10.93;;;;;;;12.55;51.72;102597.03;5073821;28;20032;-75